Time;durP1;ratioP1;P1;durP2;ratioP2;P2;SDS_P1;SDS_P2;PMS_P1;PMS_P2;Temp;Humidity;BMP_temperature;BMP_pressure;BME280_temperature;BME280_humidity;BME280_pressure;Samples;Min_cycle;Max_cycle;Signal;HPM_P1;HPM_P2
2021/09/30 00:02:21;;;;;;;6.07;5.47;;;;;;;13.68;86.47;100076.84;5020782;28;20629;-93
2021/09/30 00:04:48;;;;;;;6.77;5.17;;;;;;;13.69;86.56;100085.75;5038173;28;20277;-92
2021/09/30 00:07:14;;;;;;;5.37;4.87;;;;;;;13.75;86.80;100092.94;5040935;28;20241;-95
2021/09/30 00:09:45;;;;;;;5.63;4.90;;;;;;;13.77;86.46;100106.16;5040978;28;20234;-94
2021/09/30 00:12:16;;;;;;;5.67;4.97;;;;;;;13.79;86.50;100098.69;5041859;28;20647;-92
2021/09/30 00:42:08;;;;;;;2.90;1.90;;;;;;;14.02;80.75;100104.13;5046096;28;20282;-90
2021/09/30 00:45:28;;;;;;;2.30;2.10;;;;;;;14.06;80.59;100100.75;5060639;28;20225;-82
2021/09/30 00:47:45;;;;;;;2.57;2.30;;;;;;;14.08;80.83;100089.75;5048161;28;20231;-82
2021/09/30 00:53:01;;;;;;;3.53;2.20;;;;;;;14.22;80.95;100117.31;5061606;28;20224;-83
2021/09/30 02:26:41;;;;;;;0.60;0.50;;;;;;;15.80;63.96;100242.16;5041660;28;20304;-92
2021/09/30 02:29:26;;;;;;;1.10;0.60;;;;;;;15.69;64.40;100241.13;5041332;28;20226;-84
2021/09/30 02:58:01;;;;;;;0.73;0.57;;;;;;;15.46;65.21;100245.69;5041394;28;20242;-89
2021/09/30 02:59:49;;;;;;;1.17;0.70;;;;;;;15.48;63.08;100259.81;5055290;28;20242;-84
2021/09/30 03:02:20;;;;;;;0.97;0.80;;;;;;;15.44;63.37;100270.25;5038766;28;20229;-88
2021/09/30 03:04:48;;;;;;;0.60;0.60;;;;;;;15.34;62.71;100253.81;5038560;28;20255;-90
2021/09/30 03:07:15;;;;;;;1.50;0.87;;;;;;;15.43;63.15;100268.59;5038310;28;20565;-91
2021/09/30 03:09:45;;;;;;;1.53;0.90;;;;;;;15.30;63.48;100261.56;5038452;28;20231;-86
2021/09/30 03:12:36;;;;;;;1.60;0.73;;;;;;;15.51;62.74;100294.47;5021810;28;20647;-87
2021/09/30 03:18:14;;;;;;;1.10;0.80;;;;;;;15.40;63.49;100279.88;5061249;23;20241;-89
2021/09/30 03:20:49;;;;;;;0.73;0.73;;;;;;;15.19;64.64;100277.75;5002004;28;20233;-90
2021/09/30 03:23:20;;;;;;;1.77;0.90;;;;;;;15.33;65.04;100288.09;5000231;28;20253;-81
2021/09/30 03:25:48;;;;;;;1.00;0.80;;;;;;;15.23;66.80;100292.44;4990187;28;20527;-82
2021/09/30 03:28:22;;;;;;;2.13;0.90;;;;;;;15.06;66.68;100296.88;5001415;28;20631;-84
2021/09/30 03:30:52;;;;;;;1.30;0.90;;;;;;;14.96;67.49;100290.19;5004293;28;20239;-86
2021/09/30 03:33:21;;;;;;;1.30;1.10;;;;;;;14.91;68.26;100291.91;4982973;28;20639;-92
2021/09/30 03:36:09;;;;;;;1.20;1.10;;;;;;;14.87;68.45;100296.97;5000575;28;20224;-84
2021/09/30 03:38:36;;;;;;;1.60;1.50;;;;;;;14.68;69.23;100302.66;4998823;28;20229;-93
2021/09/30 03:41:04;;;;;;;1.20;1.00;;;;;;;14.72;69.08;100312.75;4998635;28;20223;-92
2021/09/30 03:43:31;;;;;;;1.07;1.03;;;;;;;14.65;69.06;100316.59;5014986;28;20695;-90
2021/09/30 03:46:00;;;;;;;1.43;1.00;;;;;;;14.54;69.55;100307.41;4998922;28;20255;-94
2021/09/30 03:48:29;;;;;;;1.30;1.20;;;;;;;14.49;69.74;100307.28;5001848;28;20223;-84
2021/09/30 03:59:18;;;;;;;1.30;1.10;;;;;;;14.62;67.43;100303.56;5021311;28;20303;-89
2021/09/30 04:02:12;;;;;;;1.37;1.17;;;;;;;14.68;66.82;100319.66;5010473;28;20228;-89
2021/09/30 04:04:39;;;;;;;1.00;0.90;;;;;;;14.62;66.58;100327.84;5027105;28;20259;-85
2021/09/30 04:07:08;;;;;;;2.30;1.00;;;;;;;14.56;66.93;100316.09;5021165;28;20538;-82
2021/09/30 04:09:47;;;;;;;1.70;1.30;;;;;;;14.72;65.79;100322.72;5018686;28;20232;-87
2021/09/30 04:12:26;;;;;;;1.07;0.90;;;;;;;14.63;65.69;100316.81;5033409;28;20231;-82
2021/09/30 04:14:53;;;;;;;1.53;0.97;;;;;;;14.70;66.01;100332.91;5006197;28;20236;-89
2021/09/30 04:17:20;;;;;;;1.43;0.80;;;;;;;14.66;65.63;100329.84;5002888;28;20237;-82
2021/09/30 04:19:46;;;;;;;0.90;0.80;;;;;;;14.67;65.03;100323.41;5002329;28;20276;-82
2021/09/30 04:22:15;;;;;;;1.07;0.80;;;;;;;14.61;65.55;100328.88;5018055;28;20231;-87
2021/09/30 04:24:44;;;;;;;1.87;0.80;;;;;;;14.51;65.12;100316.75;5002050;28;20659;-83
2021/09/30 04:27:13;;;;;;;0.93;0.80;;;;;;;14.61;64.32;100332.41;5005551;28;20224;-89
2021/09/30 04:29:40;;;;;;;1.10;0.60;;;;;;;14.67;64.00;100330.66;4991739;28;20232;-81
2021/09/30 04:32:14;;;;;;;1.23;0.70;;;;;;;14.69;63.78;100339.38;4991399;28;20227;-86
2021/09/30 04:34:42;;;;;;;1.37;0.90;;;;;;;14.74;63.90;100342.19;5013965;28;20247;-84
2021/09/30 04:37:09;;;;;;;2.30;0.70;;;;;;;14.75;63.75;100343.81;5039162;28;20225;-80
2021/09/30 04:39:39;;;;;;;1.13;0.70;;;;;;;14.65;63.73;100343.56;5020392;28;20226;-82
2021/09/30 04:42:07;;;;;;;1.20;0.60;;;;;;;14.50;63.96;100341.28;5034372;28;20215;-81
2021/09/30 04:44:40;;;;;;;2.27;0.60;;;;;;;14.52;63.84;100334.59;5052991;28;20207;-80
2021/09/30 04:47:27;;;;;;;2.43;0.60;;;;;;;14.66;63.56;100354.13;5050780;28;20298;-85
2021/09/30 04:50:29;;;;;;;1.43;0.77;;;;;;;14.71;63.56;100356.13;5104260;23;20237;-81
2021/09/30 04:53:01;;;;;;;1.17;0.80;;;;;;;14.75;63.24;100355.44;5074506;23;20226;-81
2021/09/30 04:55:36;;;;;;;2.07;0.70;;;;;;;14.65;63.05;100348.97;5056903;28;20305;-82
2021/09/30 04:58:07;;;;;;;0.73;0.60;;;;;;;14.62;63.17;100344.84;5073666;28;20233;-81
2021/09/30 05:00:46;;;;;;;1.83;0.80;;;;;;;14.65;63.53;100351.66;5058625;28;20193;-81
2021/09/30 05:03:17;;;;;;;1.00;0.87;;;;;;;14.70;62.95;100358.00;5075711;28;20238;-80
2021/09/30 05:05:46;;;;;;;1.63;0.80;;;;;;;14.57;63.61;100355.47;5042819;28;20579;-81
2021/09/30 05:08:40;;;;;;;1.10;0.90;;;;;;;14.67;63.56;100371.13;5057529;28;20222;-81
2021/09/30 05:11:10;;;;;;;1.00;0.87;;;;;;;14.61;63.91;100380.13;5048317;28;20217;-87
2021/09/30 05:13:39;;;;;;;2.13;0.90;;;;;;;14.60;63.84;100382.00;5057046;28;20250;-86
2021/09/30 05:16:09;;;;;;;0.90;0.80;;;;;;;14.60;63.53;100373.09;5041821;28;20233;-87
2021/09/30 05:18:56;;;;;;;1.17;0.70;;;;;;;14.54;63.74;100381.03;5022914;28;20221;-92
2021/09/30 05:21:27;;;;;;;1.83;0.70;;;;;;;14.68;63.46;100387.09;5028147;28;20318;-88
2021/09/30 05:23:54;;;;;;;1.30;0.83;;;;;;;14.72;62.96;100384.75;5060229;28;20309;-82
2021/09/30 05:26:21;;;;;;;1.40;0.80;;;;;;;14.74;63.02;100393.44;5047555;28;20239;-81
2021/09/30 05:29:00;;;;;;;1.60;0.80;;;;;;;14.75;62.75;100400.47;5067955;28;20225;-84
2021/09/30 05:31:30;;;;;;;1.10;0.90;;;;;;;14.78;62.87;100398.16;5093273;28;20246;-83
2021/09/30 05:34:19;;;;;;;1.37;1.07;;;;;;;14.83;63.54;100416.34;5075659;28;20230;-88
2021/09/30 05:36:46;;;;;;;1.17;1.07;;;;;;;14.85;62.62;100404.28;5031627;28;20310;-83
2021/09/30 05:39:16;;;;;;;0.90;0.90;;;;;;;14.93;62.47;100405.84;5073421;23;20296;-82
2021/09/30 05:41:48;;;;;;;1.23;0.97;;;;;;;14.89;63.08;100418.94;5054541;28;20246;-85
2021/09/30 05:44:22;;;;;;;0.87;0.70;;;;;;;14.85;62.88;100423.16;5018383;28;20230;-82
2021/09/30 05:47:42;;;;;;;1.00;0.80;;;;;;;15.02;62.73;100425.22;5040664;28;20211;-84
2021/09/30 05:51:03;;;;;;;0.93;0.90;;;;;;;14.91;62.88;100440.31;5411728;22;20230;-82
2021/09/30 05:54:24;;;;;;;1.20;0.90;;;;;;;14.89;63.03;100418.13;5481291;22;20237;-80
2021/09/30 05:57:05;;;;;;;0.97;0.70;;;;;;;15.10;62.55;100433.81;5063953;28;20210;-81
2021/09/30 05:59:34;;;;;;;0.80;0.80;;;;;;;15.14;62.37;100428.78;5024489;28;20214;-80
2021/09/30 06:10:12;;;;;;;1.03;0.93;;;;;;;15.06;62.60;100445.31;5049824;28;20248;-81
2021/09/30 06:12:58;;;;;;;2.90;0.90;;;;;;;15.11;62.62;100461.63;5073609;23;20194;-81
2021/09/30 06:15:33;;;;;;;1.30;0.87;;;;;;;15.04;62.47;100450.09;5055507;28;20508;-81
2021/09/30 06:18:02;;;;;;;1.33;0.97;;;;;;;15.21;62.07;100461.91;5054703;28;20312;-82
2021/09/30 06:20:33;;;;;;;2.37;0.90;;;;;;;15.03;62.81;100451.13;5069159;28;20263;-81
2021/09/30 06:23:00;;;;;;;0.80;0.80;;;;;;;15.18;62.26;100457.78;5086993;28;20247;-81
2021/09/30 06:25:29;;;;;;;1.40;1.10;;;;;;;15.20;62.34;100460.25;5068921;28;20189;-82
2021/09/30 06:27:56;;;;;;;0.93;0.80;;;;;;;15.21;62.18;100476.22;5085817;28;20220;-82
2021/09/30 06:30:29;;;;;;;0.77;0.77;;;;;;;15.23;61.93;100473.28;5069207;28;20283;-82
2021/09/30 06:33:17;;;;;;;1.10;0.80;;;;;;;15.25;61.42;100473.91;5040959;28;20236;-82
2021/09/30 06:36:03;;;;;;;1.40;1.00;;;;;;;15.25;61.40;100474.72;5069891;28;20239;-81
2021/09/30 06:38:42;;;;;;;1.80;1.00;;;;;;;15.36;60.13;100462.28;5066941;28;20246;-81
2021/09/30 06:41:23;;;;;;;1.57;1.20;;;;;;;15.36;60.71;100467.69;5068369;28;20225;-86
2021/09/30 06:44:29;;;;;;;1.00;1.00;;;;;;;15.50;60.46;100473.72;5079857;28;20235;-86
2021/09/30 06:47:15;;;;;;;2.63;1.30;;;;;;;15.52;59.89;100466.25;5068932;28;20244;-80
2021/09/30 06:49:59;;;;;;;1.30;1.20;;;;;;;15.61;59.65;100468.38;5082522;23;20265;-81
2021/09/30 06:53:01;;;;;;;1.83;1.10;;;;;;;15.69;59.55;100494.22;5050972;23;20277;-81
2021/09/30 06:56:13;;;;;;;1.13;1.10;;;;;;;15.76;59.67;100474.16;5075359;28;20226;-85
2021/09/30 06:59:22;;;;;;;1.30;1.20;;;;;;;15.77;59.07;100488.50;5070832;28;20237;-81
2021/09/30 07:02:22;;;;;;;2.90;1.00;;;;;;;16.03;58.72;100495.34;5087831;28;20221;-82
2021/09/30 07:05:43;;;;;;;1.50;1.23;;;;;;;16.15;58.47;100496.97;5068356;28;20222;-81
2021/09/30 07:08:25;;;;;;;4.03;1.23;;;;;;;16.19;58.30;100500.06;5047879;28;20222;-83
2021/09/30 07:10:53;;;;;;;2.03;1.30;;;;;;;16.34;57.77;100499.56;5042023;28;20579;-84
2021/09/30 07:13:22;;;;;;;1.30;1.17;;;;;;;16.33;57.05;100496.03;5059794;28;20530;-82
2021/09/30 07:15:54;;;;;;;1.70;1.47;;;;;;;16.48;57.35;100495.53;5062881;28;20209;-89
2021/09/30 07:18:21;;;;;;;1.83;1.20;;;;;;;16.50;57.37;100506.97;5002357;28;20291;-88
2021/09/30 07:21:00;;;;;;;2.50;1.40;;;;;;;16.60;57.14;100518.03;5021178;28;20235;-86
2021/09/30 07:23:28;;;;;;;2.50;1.00;;;;;;;16.59;55.70;100517.22;5026484;28;20319;-88
2021/09/30 07:25:55;;;;;;;1.13;0.90;;;;;;;16.46;55.33;100513.91;5030067;28;20247;-87
2021/09/30 07:28:22;;;;;;;1.27;0.90;;;;;;;16.42;55.53;100510.84;5033792;28;20229;-87
2021/09/30 07:30:49;;;;;;;0.87;0.87;;;;;;;16.42;55.26;100515.44;5033357;28;20222;-89
2021/09/30 07:33:16;;;;;;;0.93;0.60;;;;;;;16.46;54.95;100527.44;5034285;28;20256;-83
2021/09/30 07:35:43;;;;;;;1.87;0.87;;;;;;;16.54;53.42;100500.84;5019783;28;20215;-90
2021/09/30 07:38:10;;;;;;;1.67;0.70;;;;;;;16.63;53.06;100510.25;5036764;28;20223;-82
2021/09/30 07:40:37;;;;;;;2.10;0.70;;;;;;;16.61;53.48;100520.50;5041328;28;20230;-90
2021/09/30 07:43:07;;;;;;;1.77;0.80;;;;;;;16.68;54.12;100523.09;5034007;28;20232;-91
2021/09/30 07:45:34;;;;;;;2.90;0.80;;;;;;;16.67;54.08;100521.44;5035512;28;20231;-85
2021/09/30 07:48:02;;;;;;;0.97;0.70;;;;;;;16.66;54.17;100530.59;5051816;28;20244;-87
2021/09/30 07:50:28;;;;;;;1.03;0.70;;;;;;;16.60;53.85;100531.56;5037049;28;20233;-92
2021/09/30 07:52:57;;;;;;;2.73;0.80;;;;;;;16.89;53.03;100546.00;5037339;28;20233;-84
2021/09/30 07:55:25;;;;;;;0.97;0.80;;;;;;;16.82;52.72;100535.28;5054051;28;20705;-91
2021/09/30 07:57:52;;;;;;;1.27;0.70;;;;;;;16.79;53.06;100540.38;5037353;28;20253;-86
2021/09/30 08:00:19;;;;;;;1.33;0.70;;;;;;;16.98;51.72;100539.94;5036663;28;20624;-85
2021/09/30 08:02:45;;;;;;;2.10;0.80;;;;;;;16.98;52.38;100552.69;5020328;28;20277;-87
2021/09/30 08:05:12;;;;;;;0.80;0.80;;;;;;;16.98;52.20;100539.16;5018068;28;20247;-87
2021/09/30 08:07:39;;;;;;;1.97;0.87;;;;;;;17.36;52.05;100558.31;5017658;28;20232;-91
2021/09/30 08:10:07;;;;;;;1.33;1.00;;;;;;;17.46;51.46;100560.38;5035445;28;20286;-83
2021/09/30 08:12:33;;;;;;;1.73;0.90;;;;;;;17.53;51.05;100559.19;5028609;28;20229;-87
2021/09/30 08:15:00;;;;;;;1.20;1.10;;;;;;;17.27;51.23;100551.63;5041594;28;20235;-82
2021/09/30 08:17:27;;;;;;;2.60;1.10;;;;;;;17.59;50.84;100552.00;5033565;28;20667;-89
2021/09/30 08:19:54;;;;;;;1.67;1.10;;;;;;;17.60;50.81;100550.94;5020060;28;20245;-86
2021/09/30 08:22:21;;;;;;;2.40;1.37;;;;;;;17.47;51.72;100549.31;5053942;28;20285;-84
2021/09/30 08:24:47;;;;;;;3.00;1.37;;;;;;;17.36;51.75;100552.06;5020574;28;20220;-88
2021/09/30 08:27:14;;;;;;;1.90;1.50;;;;;;;17.34;51.81;100554.22;5033412;28;20313;-82
2021/09/30 08:29:41;;;;;;;2.77;1.50;;;;;;;17.29;52.01;100543.28;5016745;28;20492;-87
2021/09/30 08:32:11;;;;;;;1.73;1.50;;;;;;;17.36;51.83;100550.19;5033790;28;20283;-88
2021/09/30 08:34:37;;;;;;;1.63;1.53;;;;;;;17.57;51.47;100554.94;5036823;28;20283;-92
2021/09/30 08:37:04;;;;;;;1.97;1.50;;;;;;;17.55;51.38;100553.53;5037006;28;20658;-83
2021/09/30 08:39:31;;;;;;;5.33;2.00;;;;;;;17.64;51.84;100554.81;5037045;28;20254;-85
2021/09/30 08:41:58;;;;;;;2.93;1.60;;;;;;;18.06;50.82;100560.69;5036931;28;20241;-84
2021/09/30 08:44:25;;;;;;;2.07;1.20;;;;;;;18.08;50.31;100549.59;5039934;28;20237;-83
2021/09/30 08:46:52;;;;;;;3.30;1.50;;;;;;;18.27;49.97;100538.25;5040544;28;20304;-83
2021/09/30 08:49:18;;;;;;;2.13;1.50;;;;;;;18.19;50.10;100548.72;5040542;28;20541;-88
2021/09/30 08:51:45;;;;;;;1.70;1.60;;;;;;;18.37;49.78;100553.88;5040345;28;20221;-87
2021/09/30 08:54:12;;;;;;;2.37;1.60;;;;;;;18.40;49.89;100546.03;5043194;28;20509;-89
2021/09/30 08:56:39;;;;;;;3.63;1.40;;;;;;;18.62;49.46;100556.16;5060293;28;20241;-88
2021/09/30 08:59:17;;;;;;;3.30;1.60;;;;;;;18.58;48.79;100546.88;5043561;28;20233;-89
2021/09/30 09:02:06;;;;;;;1.60;1.50;;;;;;;18.32;49.52;100543.75;5060514;28;20231;-85
2021/09/30 09:04:53;;;;;;;1.17;1.07;;;;;;;18.57;49.14;100550.66;5051507;28;20231;-91
2021/09/30 09:07:27;;;;;;;2.70;1.30;;;;;;;18.77;48.94;100548.22;5060162;28;20225;-85
2021/09/30 09:09:59;;;;;;;1.90;1.30;;;;;;;19.05;48.93;100553.47;5039232;28;20232;-85
2021/09/30 09:12:27;;;;;;;2.27;1.50;;;;;;;19.07;48.62;100554.06;5017715;28;20621;-87
2021/09/30 09:14:53;;;;;;;2.57;1.60;;;;;;;19.02;48.08;100545.03;5023544;28;20226;-88
2021/09/30 09:17:20;;;;;;;1.90;1.20;;;;;;;19.10;47.33;100545.41;5039929;28;20229;-90
2021/09/30 09:19:59;;;;;;;2.60;1.40;;;;;;;18.88;47.69;100534.53;5057233;28;20535;-89
2021/09/30 09:22:32;;;;;;;1.97;1.40;;;;;;;18.92;47.54;100540.28;5026639;28;20573;-85
2021/09/30 09:25:03;;;;;;;2.27;1.13;;;;;;;19.05;47.23;100545.34;5043235;28;20640;-90
2021/09/30 09:27:51;;;;;;;1.20;1.10;;;;;;;19.03;45.87;100547.50;5060149;28;20625;-85
2021/09/30 09:30:39;;;;;;;1.77;1.00;;;;;;;19.22;46.27;100550.72;5059553;28;20229;-86
2021/09/30 09:33:28;;;;;;;1.20;0.90;;;;;;;19.08;46.17;100546.75;5026726;28;20224;-87
2021/09/30 09:36:09;;;;;;;2.10;1.20;;;;;;;18.86;46.40;100544.00;5043647;28;20228;-84
2021/09/30 09:38:42;;;;;;;1.10;1.00;;;;;;;18.71;46.72;100554.69;5043348;28;20654;-83
2021/09/30 09:41:14;;;;;;;2.17;0.97;;;;;;;18.92;46.62;100541.09;5077043;28;20228;-90
2021/09/30 09:43:44;;;;;;;1.50;1.10;;;;;;;19.09;46.49;100543.75;5043109;28;20259;-89
2021/09/30 09:46:14;;;;;;;1.50;1.00;;;;;;;18.88;46.89;100536.44;5042005;28;20225;-89
2021/09/30 09:48:54;;;;;;;2.17;1.30;;;;;;;18.91;46.67;100536.75;5042613;28;20278;-90
2021/09/30 09:51:21;;;;;;;0.87;0.87;;;;;;;18.73;46.92;100538.94;5042545;28;20235;-87
2021/09/30 09:53:56;;;;;;;1.67;0.97;;;;;;;18.67;47.06;100532.63;5040459;28;20236;-90
2021/09/30 09:56:23;;;;;;;1.17;1.00;;;;;;;18.50;47.11;100537.25;5023943;28;20644;-89
2021/09/30 09:58:55;;;;;;;1.80;1.00;;;;;;;19.01;47.09;100544.19;5006605;28;20221;-82
2021/09/30 10:01:27;;;;;;;2.20;0.80;;;;;;;18.94;47.96;100537.31;5039366;28;20229;-87
2021/09/30 10:03:58;;;;;;;1.37;1.07;;;;;;;19.25;47.18;100536.59;5022619;28;20217;-88
2021/09/30 10:06:32;;;;;;;1.60;0.90;;;;;;;18.97;47.22;100531.38;5039008;28;20225;-86
2021/09/30 10:09:02;;;;;;;2.10;0.90;;;;;;;19.67;46.16;100536.81;5022676;28;20229;-90
2021/09/30 10:11:29;;;;;;;2.77;0.90;;;;;;;19.76;45.43;100541.53;5016720;28;20264;-88
2021/09/30 10:13:59;;;;;;;4.47;0.93;;;;;;;19.89;45.46;100523.13;5002707;28;20246;-84
2021/09/30 10:16:26;;;;;;;3.33;1.10;;;;;;;19.70;45.64;100537.09;5018581;28;20226;-90
2021/09/30 10:18:59;;;;;;;1.27;0.90;;;;;;;19.21;46.80;100536.31;5014799;28;20226;-88
2021/09/30 10:21:27;;;;;;;1.00;0.90;;;;;;;18.65;47.41;100531.25;5002864;28;20238;-87
2021/09/30 10:24:01;;;;;;;2.50;0.70;;;;;;;18.64;47.98;100529.59;5002383;28;20299;-89
2021/09/30 10:26:44;;;;;;;1.77;0.90;;;;;;;19.07;47.10;100534.22;5002109;28;20246;-87
2021/09/30 10:29:34;;;;;;;2.00;0.80;;;;;;;18.82;46.25;100534.72;4986493;28;20638;-86
2021/09/30 10:32:01;;;;;;;2.00;0.90;;;;;;;18.99;46.66;100526.53;5001862;28;20244;-88
2021/09/30 10:34:30;;;;;;;1.40;0.80;;;;;;;18.66;46.94;100522.03;5001685;28;20236;-83
2021/09/30 10:37:16;;;;;;;3.57;0.87;;;;;;;19.02;46.76;100526.00;5018258;28;20261;-82
2021/09/30 10:39:43;;;;;;;1.27;0.83;;;;;;;18.97;47.14;100536.81;5002307;28;20218;-88
2021/09/30 10:42:57;;;;;;;2.37;1.03;;;;;;;19.23;46.93;100536.84;5018120;28;20230;-87
2021/09/30 10:45:27;;;;;;;1.73;0.80;;;;;;;19.13;46.50;100525.06;5002774;28;20331;-86
2021/09/30 10:48:04;;;;;;;1.23;0.70;;;;;;;19.56;45.81;100526.91;4986026;28;20228;-90
2021/09/30 10:50:51;;;;;;;3.13;0.90;;;;;;;19.31;45.80;100520.13;5020933;28;20234;-89
2021/09/30 10:53:18;;;;;;;2.73;1.07;;;;;;;19.10;46.00;100525.56;5001927;28;20580;-87
2021/09/30 10:55:45;;;;;;;1.40;0.90;;;;;;;18.72;46.21;100515.56;5018600;28;20240;-88
2021/09/30 10:58:21;;;;;;;2.40;0.90;;;;;;;19.33;46.13;100517.94;5000812;28;20320;-86
2021/09/30 11:00:50;;;;;;;1.87;1.00;;;;;;;19.49;45.18;100512.72;5018490;28;20221;-84
2021/09/30 11:03:20;;;;;;;2.03;0.90;;;;;;;19.87;44.08;100509.81;5038298;28;20217;-85
2021/09/30 11:06:23;;;;;;;1.00;0.90;;;;;;;20.02;43.20;100506.38;5021923;28;20245;-85
2021/09/30 11:09:14;;;;;;;1.93;0.83;;;;;;;20.18;43.30;100516.28;4942463;28;20571;-87
2021/09/30 11:11:43;;;;;;;6.53;1.27;;;;;;;20.07;43.29;100506.41;5023593;28;20217;-89
2021/09/30 11:14:10;;;;;;;2.43;0.90;;;;;;;20.05;43.17;100509.41;5037398;28;20234;-88
2021/09/30 11:16:42;;;;;;;3.60;0.93;;;;;;;19.82;42.73;100509.75;5054522;28;20229;-87
2021/09/30 11:19:22;;;;;;;2.20;0.90;;;;;;;20.23;41.93;100510.91;5026019;28;20230;-83
2021/09/30 11:21:49;;;;;;;0.97;0.90;;;;;;;19.83;42.75;100516.81;5035452;28;20638;-86
2021/09/30 11:24:19;;;;;;;2.57;0.90;;;;;;;19.88;43.26;100514.16;5035171;28;20232;-88
2021/09/30 11:26:49;;;;;;;0.97;0.70;;;;;;;19.67;43.20;100513.16;5035351;28;20222;-87
2021/09/30 11:29:25;;;;;;;2.00;0.80;;;;;;;19.31;44.47;100509.25;5018014;28;20241;-83
2021/09/30 11:31:58;;;;;;;0.90;0.80;;;;;;;20.07;43.15;100500.97;5035329;28;20229;-83
2021/09/30 11:34:28;;;;;;;2.00;0.90;;;;;;;20.10;42.88;100481.41;5017232;28;20222;-88
2021/09/30 11:36:57;;;;;;;1.50;1.00;;;;;;;19.43;43.98;100500.09;5017778;28;20222;-89
2021/09/30 11:39:31;;;;;;;2.13;0.97;;;;;;;19.92;43.77;100504.41;5001752;28;20314;-85
2021/09/30 11:41:57;;;;;;;2.23;0.90;;;;;;;20.08;42.79;100498.00;5017620;28;20292;-88
2021/09/30 11:44:25;;;;;;;2.03;0.70;;;;;;;20.24;42.14;100507.09;5017408;28;20240;-85
2021/09/30 11:46:54;;;;;;;2.40;0.90;;;;;;;20.03;41.97;100499.84;5017562;28;20229;-90
2021/09/30 11:49:21;;;;;;;2.47;0.87;;;;;;;20.53;41.16;100496.69;5017979;28;20630;-88
2021/09/30 11:51:53;;;;;;;3.00;0.90;;;;;;;20.56;41.90;100501.59;5001755;28;20230;-83
2021/09/30 11:54:25;;;;;;;0.80;0.80;;;;;;;20.26;41.53;100504.09;5054350;28;20257;-89
2021/09/30 11:56:54;;;;;;;1.10;0.80;;;;;;;20.21;41.46;100513.03;5037466;28;20300;-87
2021/09/30 11:59:25;;;;;;;1.00;0.60;;;;;;;20.41;41.81;100510.50;5020926;28;20229;-89
2021/09/30 12:01:54;;;;;;;1.90;0.60;;;;;;;20.53;41.64;100505.66;5037671;28;20262;-84
2021/09/30 12:04:41;;;;;;;1.77;0.90;;;;;;;20.21;41.79;100516.59;5045635;28;20233;-87
2021/09/30 12:07:25;;;;;;;1.27;0.83;;;;;;;20.09;42.32;100520.59;5054029;28;20294;-89
2021/09/30 12:09:57;;;;;;;3.17;0.90;;;;;;;20.10;42.15;100506.72;5057401;28;20226;-89
2021/09/30 12:12:35;;;;;;;2.40;0.70;;;;;;;19.74;42.53;100508.31;5040274;28;20625;-89
2021/09/30 12:15:04;;;;;;;4.37;0.90;;;;;;;20.48;41.84;100496.66;5041266;28;20306;-85
2021/09/30 12:17:34;;;;;;;1.10;0.70;;;;;;;20.83;41.66;100496.00;5024465;28;20234;-85
2021/09/30 12:20:03;;;;;;;4.07;0.90;;;;;;;20.67;41.52;100510.66;5060695;28;20221;-83
2021/09/30 12:22:39;;;;;;;1.70;0.70;;;;;;;19.51;42.55;100507.81;5042521;28;20232;-89
2021/09/30 12:25:10;;;;;;;0.87;0.80;;;;;;;19.78;42.74;100511.38;5043520;28;20452;-86
2021/09/30 12:27:38;;;;;;;1.97;0.80;;;;;;;20.25;41.39;100506.00;5059491;28;20228;-89
2021/09/30 12:30:10;;;;;;;1.80;0.90;;;;;;;20.11;41.47;100502.13;5043571;28;20225;-87
2021/09/30 12:32:39;;;;;;;2.03;0.90;;;;;;;20.37;41.14;100497.69;5078172;28;20278;-85
2021/09/30 12:35:32;;;;;;;4.10;1.10;;;;;;;20.40;41.03;100506.13;5060749;28;20268;-86
2021/09/30 12:38:01;;;;;;;1.80;0.70;;;;;;;20.33;41.11;100505.56;5044248;28;20256;-87
2021/09/30 12:40:40;;;;;;;2.23;1.00;;;;;;;20.44;40.97;100503.69;5043509;28;20224;-83
2021/09/30 12:43:18;;;;;;;2.07;0.90;;;;;;;20.74;40.83;100503.88;5044359;28;20233;-87
2021/09/30 12:45:47;;;;;;;3.13;0.80;;;;;;;20.48;41.24;100500.19;5078001;28;20229;-85
2021/09/30 12:48:21;;;;;;;1.77;1.00;;;;;;;20.50;40.51;100495.31;5042771;28;20624;-84
2021/09/30 12:51:04;;;;;;;2.27;0.90;;;;;;;20.06;41.50;100491.97;5060661;28;20278;-86
2021/09/30 12:53:42;;;;;;;3.77;1.00;;;;;;;19.61;42.33;100491.63;5043618;28;20248;-89
2021/09/30 12:56:10;;;;;;;3.23;1.00;;;;;;;20.18;41.71;100476.31;5059960;28;20536;-82
2021/09/30 12:58:41;;;;;;;2.57;1.00;;;;;;;20.63;40.95;100489.38;5027073;28;20231;-86
2021/09/30 13:01:21;;;;;;;1.70;0.90;;;;;;;20.97;39.66;100472.63;5059985;28;20328;-87
2021/09/30 13:04:08;;;;;;;2.43;0.97;;;;;;;20.51;40.04;100479.78;5037329;28;20264;-82
2021/09/30 13:06:41;;;;;;;6.07;1.10;;;;;;;20.89;39.78;100473.97;5038915;28;20277;-85
2021/09/30 13:09:20;;;;;;;4.70;1.20;;;;;;;21.06;40.24;100473.75;5023810;28;20245;-84
2021/09/30 13:11:57;;;;;;;5.07;1.00;;;;;;;21.10;39.49;100469.41;5040610;28;20234;-87
2021/09/30 13:14:33;;;;;;;3.43;0.90;;;;;;;20.87;39.80;100461.69;5054758;28;20267;-84
2021/09/30 13:17:12;;;;;;;3.90;0.90;;;;;;;20.68;39.41;100464.06;5023901;28;20301;-84
2021/09/30 13:19:54;;;;;;;5.57;1.00;;;;;;;20.38;40.26;100466.66;5035515;28;20249;-87
2021/09/30 13:22:21;;;;;;;3.73;0.97;;;;;;;19.85;41.20;100473.06;5056363;28;20241;-88
2021/09/30 13:24:52;;;;;;;2.87;0.77;;;;;;;19.96;41.14;100462.00;5056401;28;20237;-85
2021/09/30 13:27:22;;;;;;;3.70;0.87;;;;;;;20.54;40.61;100452.84;5039863;28;20230;-85
2021/09/30 13:29:49;;;;;;;3.37;0.90;;;;;;;20.74;39.64;100456.75;5039885;28;20230;-85
2021/09/30 13:32:17;;;;;;;0.90;0.80;;;;;;;20.62;39.85;100449.63;5022415;28;20237;-86
2021/09/30 13:34:44;;;;;;;2.33;0.77;;;;;;;20.54;39.60;100439.25;5022859;28;20317;-89
2021/09/30 13:37:11;;;;;;;2.60;0.97;;;;;;;20.32;39.15;100448.66;5022613;28;20224;-87
2021/09/30 13:39:38;;;;;;;0.93;0.60;;;;;;;20.22;40.03;100442.03;5022333;28;20239;-88
2021/09/30 13:42:06;;;;;;;3.63;1.10;;;;;;;20.14;39.78;100444.44;5038998;28;20316;-89
2021/09/30 13:44:33;;;;;;;3.33;0.90;;;;;;;19.80;40.34;100454.81;5039662;28;20701;-84
2021/09/30 13:47:00;;;;;;;1.10;0.80;;;;;;;19.48;41.75;100434.97;5039289;28;20222;-89
2021/09/30 13:49:27;;;;;;;2.03;0.80;;;;;;;19.35;41.53;100425.31;5039563;28;20229;-88
2021/09/30 13:51:54;;;;;;;1.37;0.70;;;;;;;19.25;42.40;100439.63;5039544;28;20230;-82
2021/09/30 13:54:21;;;;;;;1.50;0.60;;;;;;;19.20;42.16;100430.59;5038608;28;20410;-84
2021/09/30 13:56:48;;;;;;;2.23;0.80;;;;;;;18.91;42.17;100428.13;5022920;28;20271;-85
2021/09/30 13:59:14;;;;;;;1.17;0.80;;;;;;;18.91;42.60;100433.56;5039516;28;20252;-89
2021/09/30 14:02:02;;;;;;;2.83;0.90;;;;;;;18.88;41.37;100434.09;5025144;28;20234;-82
2021/09/30 14:04:28;;;;;;;0.97;0.60;;;;;;;19.08;41.08;100428.06;5052182;28;20244;-85
2021/09/30 14:06:56;;;;;;;3.17;0.90;;;;;;;19.09;41.10;100415.28;5042724;28;20331;-89
2021/09/30 14:09:23;;;;;;;1.77;0.77;;;;;;;19.39;41.60;100429.16;5076229;28;20227;-88
2021/09/30 14:11:50;;;;;;;2.70;0.80;;;;;;;19.25;41.13;100422.50;5042066;28;20228;-83
2021/09/30 14:14:17;;;;;;;2.70;0.97;;;;;;;19.36;41.27;100419.59;5041536;28;20229;-85
2021/09/30 14:16:44;;;;;;;3.77;0.83;;;;;;;19.30;41.29;100407.09;5042403;28;20635;-88
2021/09/30 14:19:11;;;;;;;4.23;0.90;;;;;;;19.44;41.21;100412.94;5039040;28;20226;-86
2021/09/30 14:21:38;;;;;;;2.60;1.07;;;;;;;19.49;40.93;100418.41;5022098;28;20403;-87
2021/09/30 14:24:05;;;;;;;6.17;0.83;;;;;;;19.28;40.33;100408.41;5021770;28;20229;-83
2021/09/30 14:26:31;;;;;;;7.03;0.80;;;;;;;19.64;41.07;100412.28;5038833;28;20237;-82
2021/09/30 14:28:58;;;;;;;5.07;0.77;;;;;;;19.56;40.53;100404.59;5022486;28;20230;-87
2021/09/30 14:31:25;;;;;;;2.87;0.90;;;;;;;19.74;39.88;100402.28;5055994;28;20321;-89
2021/09/30 14:33:52;;;;;;;2.23;0.80;;;;;;;19.65;40.69;100406.56;5038926;28;20243;-87
2021/09/30 14:36:19;;;;;;;2.80;0.90;;;;;;;19.52;41.13;100407.00;5021475;28;20532;-86
2021/09/30 14:38:45;;;;;;;3.67;0.80;;;;;;;19.60;40.71;100401.09;5054708;28;20244;-88
2021/09/30 14:41:12;;;;;;;2.83;0.70;;;;;;;19.73;41.81;100403.38;5038292;28;20308;-87